Terminal Aerodrome Forecast
Issued by NWS Buffalo, NY

Home | Current Version | Previous Version | Text Only | Print | Product List | Glossary On
Versions: 1 2 3 4 5 6 7 8 9 10 11 12 13 14 15 16 17 18 19 20 21 22 23
384
FTUS41 KBUF 221740
TAFBUF
TAF
KBUF 221740Z 2218/2318 22017G30KT P6SM VCSH BKN050
      TEMPO 2218/2222 VRB20G40KT 2SM -TSRA BKN030CB
     FM222300 26016G23KT P6SM VCSH BKN040
     FM230100 29011KT P6SM BKN250
     FM231400 27013G19KT P6SM SCT250
     FM231700 26018KT P6SM BKN040=

USA.gov is the U.S. government's official web portal to all federal, state and local government web resources and services.